Time;durP1;ratioP1;P1;durP2;ratioP2;P2;SDS_P1;SDS_P2;PMS_P1;PMS_P2;Temp;Humidity;BMP_temperature;BMP_pressure;BME280_temperature;BME280_humidity;BME280_pressure;Samples;Min_cycle;Max_cycle;Signal;HPM_P1;HPM_P2
2023/08/18 00:05:24;;;;;;;12.23;9.98;;;22.30;96.30;;;;;;4913911;28;20255;-85
2023/08/18 00:25:55;;;;;;;10.40;8.25;;;23.20;90.80;;;;;;4789687;29;20229;-88
2023/08/18 00:46:12;;;;;;;12.80;9.37;;;21.30;99.90;;;;;;4718858;29;20217;-82
2023/08/18 01:11:18;;;;;;;10.07;8.53;;;19.80;99.90;;;;;;4636766;30;20567;-83
2023/08/18 01:47:02;;;;;;;15.13;12.53;;;19.50;99.90;;;;;;4982888;27;20473;-83
2023/08/18 02:12:14;;;;;;;14.87;13.10;;;19.50;99.90;;;;;;4825985;28;20392;-84
2023/08/18 02:42:21;;;;;;;11.53;10.27;;;18.90;99.90;;;;;;4866025;28;20660;-84
2023/08/18 03:02:57;;;;;;;10.00;9.10;;;19.10;99.90;;;;;;4829199;29;20230;-85
2023/08/18 03:58:50;;;;;;;9.60;8.70;;;19.80;99.90;;;;;;4828232;28;20755;-83
2023/08/18 04:23:49;;;;;;;12.97;11.27;;;20.30;99.90;;;;;;4765977;29;20506;-86
2023/08/18 04:44:19;;;;;;;11.55;10.35;;;20.70;99.90;;;;;;4638887;30;20655;-90
2023/08/18 05:04:49;;;;;;;11.50;10.35;;;21.20;99.90;;;;;;4698997;29;21118;-88
2023/08/18 05:29:33;;;;;;;9.15;8.35;;;21.60;99.90;;;;;;4762034;29;20424;-89
2023/08/18 05:50:13;;;;;;;11.43;9.98;;;22.00;99.90;;;;;;4702608;29;20981;-85
2023/08/18 06:10:41;;;;;;;9.50;8.23;;;22.40;99.90;;;;;;4698127;29;20239;-88
2023/08/18 06:30:49;;;;;;;8.07;7.30;;;22.70;99.90;;;;;;4776950;29;21712;-84
2023/08/18 06:56:28;;;;;;;8.43;7.47;;;23.10;99.90;;;;;;4829719;28;20235;-85
2023/08/18 07:00:47;;;;;;;8.02;7.28;;;23.10;99.90;;;;;;4847830;28;20608;-83
2023/08/18 07:21:39;;;;;;;7.05;6.35;;;24.50;99.90;;;;;;4763921;29;20403;-83
2023/08/18 07:47:04;;;;;;;7.60;6.88;;;25.30;97.80;;;;;;4682221;29;20884;-81
2023/08/18 08:17:21;;;;;;;9.50;7.75;;;26.50;91.30;;;;;;4846377;28;20259;-84
2023/08/18 08:42:44;;;;;;;8.60;7.78;;;26.70;91.50;;;;;;4675117;29;20232;-84
2023/08/18 09:08:04;;;;;;;7.57;6.72;;;28.00;86.00;;;;;;4695486;29;20203;-86
2023/08/18 09:23:34;;;;;;;8.80;7.88;;;28.50;85.00;;;;;;4759593;29;20243;-85
2023/08/18 09:54:00;;;;;;;10.75;8.77;;;28.80;77.80;;;;;;4795387;29;20484;-87
2023/08/18 10:29:29;;;;;;;7.95;7.22;;;29.20;75.00;;;;;;4756278;29;20202;-82
2023/08/18 10:33:52;;;;;;;7.80;7.20;;;29.30;74.90;;;;;;4668273;29;20546;-83
2023/08/18 10:59:15;;;;;;;7.53;6.53;;;29.70;69.30;;;;;;4616445;30;20232;-85
2023/08/18 11:14:57;;;;;;;6.40;5.80;;;29.90;66.70;;;;;;4889654;28;20211;-88
2023/08/18 11:35:19;;;;;;;6.45;5.85;;;30.10;64.60;;;;;;4730899;29;20245;-83
2023/08/18 12:05:42;;;;;;;6.80;6.20;;;30.70;63.40;;;;;;4821251;28;20730;-82
2023/08/18 12:30:29;;;;;;;8.20;6.75;;;30.50;62.10;;;;;;4580064;29;20803;-80
2023/08/18 13:36:43;;;;;;;9.20;4.63;;;30.90;58.70;;;;;;4899514;28;20199;-87
2023/08/18 14:12:37;;;;;;;5.10;4.60;;;30.90;57.30;;;;;;4874947;28;20568;-85
2023/08/18 14:42:21;;;;;;;5.28;4.78;;;30.50;57.70;;;;;;4727756;29;21152;-83
2023/08/18 15:03:07;;;;;;;9.68;7.82;;;28.00;83.20;;;;;;4633222;30;20231;-80
2023/08/18 15:33:04;;;;;;;8.98;8.07;;;26.30;91.30;;;;;;4506119;30;21176;-87
2023/08/18 15:59:04;;;;;;;6.60;6.00;;;25.90;88.80;;;;;;4689618;29;20598;-82
2023/08/18 16:24:23;;;;;;;5.05;4.60;;;25.20;87.20;;;;;;4653340;29;20288;-83
2023/08/18 16:44:48;;;;;;;5.35;4.85;;;24.60;87.60;;;;;;4596615;30;20229;-84
2023/08/18 17:30:23;;;;;;;6.53;6.03;;;23.90;93.50;;;;;;4704013;29;20640;-81
2023/08/18 18:41:27;;;;;;;11.02;10.02;;;21.80;99.90;;;;;;5009664;27;20186;-85
2023/08/18 18:45:46;;;;;;;10.95;9.77;;;21.80;99.90;;;;;;4874625;28;20336;-85
2023/08/18 19:06:41;;;;;;;12.07;10.95;;;21.50;99.90;;;;;;4872030;28;20194;-84
2023/08/18 19:31:43;;;;;;;13.57;12.15;;;21.50;99.90;;;;;;4760767;29;20532;-84
2023/08/18 19:56:49;;;;;;;13.27;11.13;;;21.60;99.90;;;;;;4583333;30;20495;-81
2023/08/18 20:17:29;;;;;;;11.40;10.50;;;21.90;99.90;;;;;;4625239;30;20271;-81
2023/08/18 20:43:07;;;;;;;13.38;12.10;;;21.70;99.90;;;;;;4602667;30;20236;-82
2023/08/18 21:08:16;;;;;;;13.85;12.45;;;21.30;99.90;;;;;;4563883;30;20287;-85
2023/08/18 21:33:52;;;;;;;13.40;12.20;;;21.50;99.90;;;;;;4661058;29;20233;-84
2023/08/18 21:38:11;;;;;;;13.98;12.70;;;21.50;99.90;;;;;;4619965;29;20777;-81
2023/08/18 21:54:09;;;;;;;15.45;14.05;;;21.30;99.90;;;;;;4726491;29;20232;-83
2023/08/18 22:14:14;;;;;;;16.42;14.93;;;21.00;99.90;;;;;;4796341;29;20252;-83
2023/08/18 22:44:48;;;;;;;17.30;15.60;;;20.70;99.90;;;;;;4886337;28;20201;-83
2023/08/18 23:09:43;;;;;;;17.77;16.07;;;20.20;99.90;;;;;;4760868;29;20650;-83
2023/08/18 23:25:17;;;;;;;18.43;16.73;;;20.10;99.90;;;;;;4688147;29;20689;-83
2023/08/18 23:55:17;;;;;;;19.47;17.47;;;20.20;99.90;;;;;;4674961;29;20491;-83
